createdAt,value
2022-08-08T00:02:33.152Z,99819.84
2022-08-08T00:05:09.835Z,99820.72
2022-08-08T00:08:02.413Z,99825.16
2022-08-08T00:10:50.728Z,99818.59
2022-08-08T00:14:16.780Z,99821.38
2022-08-08T00:17:22.853Z,99819.09
2022-08-08T00:20:02.590Z,99821.03
2022-08-08T00:22:52.694Z,99808.19
2022-08-08T00:25:44.831Z,99801.19
2022-08-08T00:28:34.931Z,99800.12
2022-08-08T00:32:16.201Z,99790.03
2022-08-08T00:35:08.802Z,99789.81
2022-08-08T00:38:06.318Z,99778.03
2022-08-08T00:41:14.678Z,99787.06
2022-08-08T00:44:01.370Z,99786.00
2022-08-08T00:47:00.254Z,99794.06
2022-08-08T00:49:33.877Z,99786.03
2022-08-08T00:52:23.260Z,99785.41
2022-08-08T00:55:10.703Z,99785.81
2022-08-08T00:58:30.564Z,99786.84
2022-08-08T01:01:37.800Z,99797.00
2022-08-08T01:04:11.240Z,99781.81
2022-08-08T01:07:10.632Z,99784.12
2022-08-08T01:09:54.638Z,99774.22
2022-08-08T01:12:54.239Z,99780.94
2022-08-08T01:15:54.421Z,99781.38
2022-08-08T01:18:52.496Z,99784.94
2022-08-08T01:22:10.101Z,99776.12
2022-08-08T01:24:58.256Z,99781.59
2022-08-08T01:28:03.912Z,99782.22
2022-08-08T01:30:46.231Z,99781.59
2022-08-08T01:34:05.082Z,99786.63
2022-08-08T01:37:05.874Z,99782.00
2022-08-08T01:40:02.852Z,99769.12
2022-08-08T01:42:38.220Z,99766.00
2022-08-08T01:45:29.588Z,99771.66
2022-08-08T01:48:16.847Z,99756.09
2022-08-08T01:51:06.042Z,99755.66
2022-08-08T01:55:19.458Z,99768.50
2022-08-08T01:58:10.885Z,99762.19
2022-08-08T02:00:57.371Z,99760.75
2022-08-08T02:03:58.347Z,99753.75
2022-08-08T02:06:57.757Z,99772.31
2022-08-08T02:10:02.598Z,99759.44
2022-08-08T02:12:53.510Z,99772.75
2022-08-08T02:15:38.299Z,99780.31
2022-08-08T02:18:17.749Z,99774.22
2022-08-08T02:21:29.937Z,99775.25
2022-08-08T02:24:09.280Z,99784.34
2022-08-08T02:27:06.218Z,99786.88
2022-08-08T02:30:06.498Z,99784.97
2022-08-08T02:32:42.539Z,99791.94
2022-08-08T02:36:03.693Z,99800.56
2022-08-08T02:39:00.858Z,99795.91
2022-08-08T02:42:05.887Z,99790.66
2022-08-08T02:44:56.451Z,99794.87
2022-08-08T02:47:47.172Z,99800.16
2022-08-08T02:50:32.394Z,99800.34
2022-08-08T02:53:18.935Z,99790.25
2022-08-08T02:56:35.021Z,99792.97
2022-08-08T02:59:58.236Z,99798.44
2022-08-08T03:03:15.979Z,99788.16
2022-08-08T03:06:34.837Z,99803.06
2022-08-08T03:09:33.098Z,99806.47
2022-08-08T03:13:01.644Z,99806.03
2022-08-08T03:16:00.783Z,99810.25
2022-08-08T03:19:17.881Z,99814.50
2022-08-08T03:21:58.388Z,99818.31
2022-08-08T03:24:28.871Z,99812.34
2022-08-08T03:27:10.391Z,99816.00
2022-08-08T03:29:54.658Z,99815.34
2022-08-08T03:32:42.365Z,99806.91
2022-08-08T03:35:22.899Z,99800.56
2022-08-08T03:38:53.437Z,99812.16
2022-08-08T03:40:43.513Z,99807.75
2022-08-08T03:43:23.132Z,99800.12
2022-08-08T03:46:03.517Z,99797.00
2022-08-08T03:49:08.974Z,99800.97
2022-08-08T03:51:39.995Z,99814.91
2022-08-08T03:54:09.974Z,99817.84
2022-08-08T03:56:49.590Z,99816.59
2022-08-08T03:59:22.817Z,99804.56
2022-08-08T04:02:31.482Z,99798.66
2022-08-08T04:04:42.798Z,99808.13
2022-08-08T04:07:16.301Z,99817.66
2022-08-08T04:10:00.612Z,99811.09
2022-08-08T04:12:36.598Z,99814.50
2022-08-08T04:15:05.508Z,99821.41
2022-08-08T04:17:58.226Z,99820.59
2022-08-08T04:20:28.599Z,99824.81
2022-08-08T04:22:58.211Z,99824.38
2022-08-08T04:25:30.234Z,99827.97
2022-08-08T04:28:37.197Z,99833.87
2022-08-08T04:30:55.189Z,99833.03
2022-08-08T04:33:28.680Z,99839.78
2022-08-08T04:36:12.609Z,99834.28
2022-08-08T04:38:44.240Z,99843.81
2022-08-08T04:41:17.888Z,99835.78
2022-08-08T04:43:57.096Z,99843.16
2022-08-08T04:46:31.077Z,99833.47
2022-08-08T04:48:59.243Z,99838.50
2022-08-08T04:51:48.534Z,99833.03
2022-08-08T04:54:40.136Z,99844.59
2022-08-08T04:57:09.750Z,99848.81
2022-08-08T04:59:41.878Z,99849.50
2022-08-08T05:02:14.593Z,99854.97
2022-08-08T05:04:45.168Z,99853.28
2022-08-08T05:07:16.492Z,99862.13
2022-08-08T05:09:44.125Z,99853.66
2022-08-08T05:12:20.470Z,99855.19
2022-08-08T05:14:52.267Z,99856.37
2022-08-08T05:17:21.637Z,99851.50
2022-08-08T05:20:09.196Z,99849.88
2022-08-08T05:22:38.386Z,99847.75
2022-08-08T05:25:07.343Z,99858.09
2022-08-08T05:27:41.385Z,99856.13
2022-08-08T05:30:12.737Z,99859.75
2022-08-08T05:32:41.544Z,99866.72
2022-08-08T05:35:14.548Z,99869.06
2022-08-08T05:37:52.227Z,99862.75
2022-08-08T05:40:28.095Z,99868.97
2022-08-08T05:43:38.241Z,99870.72
2022-08-08T05:46:04.053Z,99864.37
2022-08-08T05:48:37.800Z,99856.78
2022-08-08T05:51:14.833Z,99857.44
2022-08-08T05:54:25.167Z,99866.28
2022-08-08T05:56:41.924Z,99866.72
2022-08-08T05:59:58.684Z,99866.03
2022-08-08T06:02:40.881Z,99860.31
2022-08-08T06:05:35.099Z,99852.97
2022-08-08T06:08:10.018Z,99852.12
2022-08-08T06:10:58.384Z,99851.78
2022-08-08T06:13:36.481Z,99861.25
2022-08-08T06:16:19.221Z,99874.78
2022-08-08T06:18:54.517Z,99871.03
2022-08-08T06:21:32.696Z,99870.84
2022-08-08T06:24:14.021Z,99872.50
2022-08-08T06:26:58.162Z,99878.63
2022-08-08T06:30:00.382Z,99872.53
2022-08-08T06:32:30.196Z,99872.91
2022-08-08T06:36:04.621Z,99863.13
2022-08-08T06:37:57.997Z,99856.84
2022-08-08T06:40:29.851Z,99861.41
2022-08-08T06:43:09.495Z,99869.03
2022-08-08T06:45:39.288Z,99875.56
2022-08-08T06:48:08.597Z,99876.19
2022-08-08T06:50:39.388Z,99875.16
2022-08-08T06:53:10.137Z,99877.03
2022-08-08T06:55:47.400Z,99880.38
2022-08-08T06:58:33.067Z,99885.03
2022-08-08T07:01:24.563Z,99885.25
2022-08-08T07:04:37.161Z,99885.38
2022-08-08T07:06:57.397Z,99881.16
2022-08-08T07:09:45.381Z,99875.12
2022-08-08T07:12:42.864Z,99871.19
2022-08-08T07:15:23.474Z,99877.28
2022-08-08T07:18:36.097Z,99874.81
2022-08-08T07:20:57.403Z,99868.81
2022-08-08T07:24:01.254Z,99862.97
2022-08-08T07:26:35.240Z,99872.88
2022-08-08T07:29:11.533Z,99877.38
2022-08-08T07:31:40.702Z,99880.66
2022-08-08T07:34:10.486Z,99887.97
2022-08-08T07:36:50.439Z,99892.06
2022-08-08T07:39:29.746Z,99889.06
2022-08-08T07:42:13.457Z,99885.63
2022-08-08T07:44:47.963Z,99888.97
2022-08-08T07:47:29.165Z,99898.97
2022-08-08T07:50:08.336Z,99898.81
2022-08-08T07:52:37.025Z,99895.37
2022-08-08T07:55:29.325Z,99897.66
2022-08-08T07:58:08.407Z,99907.78
2022-08-08T08:00:45.581Z,99908.06
2022-08-08T08:03:41.222Z,99906.41
2022-08-08T08:06:14.244Z,99908.09
2022-08-08T08:08:55.282Z,99910.25
2022-08-08T08:11:33.671Z,99908.91
2022-08-08T08:14:09.788Z,99907.25
2022-08-08T08:16:41.102Z,99904.38
2022-08-08T08:19:12.630Z,99905.91
2022-08-08T08:21:52.501Z,99904.34
2022-08-08T08:24:30.993Z,99905.78
2022-08-08T08:27:02.942Z,99898.72
2022-08-08T08:29:31.881Z,99909.44
2022-08-08T08:32:05.728Z,99912.28
2022-08-08T08:34:34.568Z,99914.41
2022-08-08T08:37:07.856Z,99907.44
2022-08-08T08:40:00.336Z,99914.78
2022-08-08T08:42:32.077Z,99918.59
2022-08-08T08:45:21.914Z,99921.34
2022-08-08T08:47:53.985Z,99933.19
2022-08-08T08:50:32.472Z,99937.63
2022-08-08T08:53:27.996Z,99925.87
2022-08-08T08:56:02.082Z,99921.47
2022-08-08T08:58:37.635Z,99930.06
2022-08-08T09:01:09.806Z,99919.00
2022-08-08T09:03:46.029Z,99924.22
2022-08-08T09:06:28.277Z,99928.66
2022-08-08T09:09:07.229Z,99927.34
2022-08-08T09:12:01.756Z,99932.72
2022-08-08T09:14:34.686Z,99932.72
2022-08-08T09:17:11.620Z,99932.72
2022-08-08T09:21:57.969Z,99934.16
2022-08-08T09:22:31.432Z,99936.53
2022-08-08T09:24:59.441Z,99945.94
2022-08-08T09:27:55.945Z,99940.16
2022-08-08T09:30:17.717Z,99934.97
2022-08-08T09:33:12.495Z,99932.53
2022-08-08T09:35:50.273Z,99935.50
2022-08-08T09:38:35.548Z,99931.06
2022-08-08T09:42:15.203Z,99932.25
2022-08-08T09:44:40.800Z,99930.06
2022-08-08T09:48:02.661Z,99923.91
2022-08-08T09:49:58.887Z,99920.69
2022-08-08T09:52:56.571Z,99914.19
2022-08-08T09:55:51.398Z,99909.44
2022-08-08T09:58:25.728Z,99916.19
2022-08-08T10:01:01.758Z,99910.81
2022-08-08T10:03:33.160Z,99906.84
2022-08-08T10:06:18.310Z,99911.06
2022-08-08T10:08:47.159Z,99909.16
2022-08-08T10:12:25.894Z,99911.75
2022-08-08T10:14:28.540Z,99913.19
2022-08-08T10:16:59.477Z,99919.09
2022-08-08T10:19:57.547Z,99920.56
2022-08-08T10:22:27.461Z,99929.34
2022-08-08T10:25:01.320Z,99928.78
2022-08-08T10:27:34.583Z,99925.47
2022-08-08T10:30:05.350Z,99923.91
2022-08-08T10:32:37.491Z,99927.59
2022-08-08T10:36:01.974Z,99917.78
2022-08-08T10:38:05.227Z,99903.09
2022-08-08T10:40:33.501Z,99902.94
2022-08-08T10:43:03.320Z,99905.72
2022-08-08T10:45:56.275Z,99895.59
2022-08-08T10:48:38.733Z,99902.37
2022-08-08T10:51:26.438Z,99910.31
2022-08-08T10:54:00.145Z,99918.06
2022-08-08T10:56:34.663Z,99920.00
2022-08-08T10:59:12.249Z,99934.78
2022-08-08T11:01:54.574Z,99935.25
2022-08-08T11:04:29.420Z,99935.03
2022-08-08T11:07:07.072Z,99936.94
2022-08-08T11:09:35.359Z,99929.28
2022-08-08T11:12:12.532Z,99929.94
2022-08-08T11:14:51.525Z,99939.47
2022-08-08T11:18:00.241Z,99935.75
2022-08-08T11:20:13.388Z,99927.53
2022-08-08T11:22:41.761Z,99920.38
2022-08-08T11:25:14.383Z,99921.19
2022-08-08T11:27:47.873Z,99914.84
2022-08-08T11:30:20.543Z,99913.38
2022-08-08T11:32:55.254Z,99913.62
2022-08-08T11:35:38.643Z,99917.06
2022-08-08T11:38:36.711Z,99911.47
2022-08-08T11:41:01.158Z,99917.87
2022-08-08T11:43:39.605Z,99921.19
2022-08-08T11:46:13.546Z,99928.59
2022-08-08T11:48:47.091Z,99935.34
2022-08-08T11:51:38.768Z,99930.06
2022-08-08T11:54:27.308Z,99923.13
2022-08-08T11:56:56.506Z,99934.47
2022-08-08T11:59:58.654Z,99936.12
2022-08-08T12:02:32.340Z,99940.91
2022-08-08T12:05:22.883Z,99943.91
2022-08-08T12:07:56.031Z,99939.84
2022-08-08T12:10:26.564Z,99945.34
2022-08-08T12:13:09.734Z,99941.81
2022-08-08T12:15:41.975Z,99945.47
2022-08-08T12:18:14.451Z,99940.16
2022-08-08T12:20:44.036Z,99945.69
2022-08-08T12:23:30.203Z,99932.19
2022-08-08T12:26:09.975Z,99938.00
2022-08-08T12:28:57.183Z,99940.09
2022-08-08T12:31:39.121Z,99939.37
2022-08-08T12:34:57.523Z,99942.25
2022-08-08T12:37:40.674Z,99942.22
2022-08-08T12:40:22.624Z,99946.75
2022-08-08T12:42:52.873Z,99945.47
2022-08-08T12:45:58.955Z,99951.16
2022-08-08T12:48:37.448Z,99958.75
2022-08-08T12:51:10.866Z,99964.25
2022-08-08T12:54:01.557Z,99963.78
2022-08-08T12:56:34.814Z,99966.56
2022-08-08T12:59:16.248Z,99969.94
2022-08-08T13:02:00.096Z,99958.69
2022-08-08T13:04:30.061Z,99958.84
2022-08-08T13:07:01.271Z,99947.87
2022-08-08T13:10:10.680Z,99957.50
2022-08-08T13:12:47.146Z,99959.34
2022-08-08T13:15:19.566Z,99964.34
2022-08-08T13:18:09.227Z,99961.13
2022-08-08T13:20:44.812Z,99956.13
2022-08-08T13:23:41.711Z,99955.25
2022-08-08T13:26:14.780Z,99950.53
2022-08-08T13:28:45.716Z,99955.81
2022-08-08T13:31:17.156Z,99952.34
2022-08-08T13:33:49.876Z,99943.75
2022-08-08T13:36:26.041Z,99938.72
2022-08-08T13:38:59.258Z,99948.41
2022-08-08T13:41:37.778Z,99936.38
2022-08-08T13:44:11.549Z,99938.94
2022-08-08T13:46:40.017Z,99934.50
2022-08-08T13:50:35.492Z,99937.03
2022-08-08T13:52:06.861Z,99935.97
2022-08-08T13:54:44.034Z,99924.81
2022-08-08T13:57:14.499Z,99928.16
2022-08-08T13:59:47.985Z,99917.84
2022-08-08T14:02:20.878Z,99920.97
2022-08-08T14:05:20.582Z,99912.31
2022-08-08T14:07:51.977Z,99914.88
2022-08-08T14:10:33.066Z,99915.06
2022-08-08T14:13:20.997Z,99907.25
2022-08-08T14:16:07.981Z,99905.12
2022-08-08T14:18:52.025Z,99905.81
2022-08-08T14:21:22.723Z,99911.50
2022-08-08T14:24:06.898Z,99915.72
2022-08-08T14:26:43.258Z,99915.91
2022-08-08T14:29:27.977Z,99914.44
2022-08-08T14:32:09.007Z,99914.44
2022-08-08T14:34:38.789Z,99917.19
2022-08-08T14:37:08.218Z,99915.06
2022-08-08T14:39:48.671Z,99921.62
2022-08-08T14:42:28.316Z,99917.16
2022-08-08T14:45:00.953Z,99924.59
2022-08-08T14:47:36.360Z,99920.09
2022-08-08T14:50:14.878Z,99914.88
2022-08-08T14:52:54.493Z,99915.72
2022-08-08T14:55:41.163Z,99914.03
2022-08-08T14:58:11.817Z,99911.09
2022-08-08T15:00:45.160Z,99924.97
2022-08-08T15:03:14.931Z,99929.44
2022-08-08T15:05:54.185Z,99922.00
2022-08-08T15:08:35.433Z,99923.97
2022-08-08T15:11:09.437Z,99921.28
2022-08-08T15:14:00.921Z,99922.59
2022-08-08T15:16:29.476Z,99921.12
2022-08-08T15:19:04.102Z,99922.44
2022-08-08T15:21:32.357Z,99921.16
2022-08-08T15:24:00.775Z,99922.22
2022-08-08T15:26:29.577Z,99921.84
2022-08-08T15:28:57.610Z,99920.50
2022-08-08T15:31:55.801Z,99918.88
2022-08-08T15:34:18.432Z,99920.13
2022-08-08T15:36:57.669Z,99922.69
2022-08-08T15:39:25.983Z,99927.09
2022-08-08T15:41:54.869Z,99924.13
2022-08-08T15:44:22.456Z,99923.34
2022-08-08T15:46:50.587Z,99928.16
2022-08-08T15:49:21.085Z,99926.69
2022-08-08T15:51:51.913Z,99925.84
2022-08-08T15:54:38.346Z,99921.56
2022-08-08T15:57:09.455Z,99925.00
2022-08-08T16:00:05.177Z,99920.16
2022-08-08T16:02:30.788Z,99918.69
2022-08-08T16:05:00.446Z,99918.91
2022-08-08T16:07:51.880Z,99916.78
2022-08-08T16:13:10.367Z,99917.84
2022-08-08T16:13:30.889Z,99908.53
2022-08-08T16:15:57.715Z,99913.94
2022-08-08T16:18:33.001Z,99922.69
2022-08-08T16:21:01.247Z,99906.41
2022-08-08T16:23:32.329Z,99909.75
2022-08-08T16:26:04.384Z,99911.69
2022-08-08T16:28:34.920Z,99905.56
2022-08-08T16:31:06.362Z,99908.91
2022-08-08T16:33:39.377Z,99900.47
2022-08-08T16:36:15.695Z,99907.84
2022-08-08T16:38:53.921Z,99912.31
2022-08-08T16:41:24.294Z,99918.78
2022-08-08T16:43:52.360Z,99916.47
2022-08-08T16:46:43.004Z,99917.34
2022-08-08T16:49:09.332Z,99910.63
2022-08-08T16:55:00.529Z,99917.13
2022-08-08T16:55:13.926Z,99917.16
2022-08-08T16:57:27.955Z,99923.88
2022-08-08T17:00:09.624Z,99929.66
2022-08-08T17:02:39.734Z,99928.81
2022-08-08T17:05:10.200Z,99926.13
2022-08-08T17:07:42.240Z,99926.38
2022-08-08T17:10:11.733Z,99920.25
2022-08-08T17:12:53.119Z,99940.75
2022-08-08T17:15:22.998Z,99937.03
2022-08-08T17:18:02.321Z,99947.66
2022-08-08T17:20:32.520Z,99948.53
2022-08-08T17:23:16.215Z,99957.44
2022-08-08T17:25:52.665Z,99953.28
2022-08-08T17:28:31.540Z,99965.91
2022-08-08T17:31:39.075Z,99975.16
2022-08-08T17:34:48.157Z,99974.47
2022-08-08T17:37:00.857Z,99964.97
2022-08-08T17:40:03.703Z,99965.50
2022-08-08T17:42:17.971Z,99968.94
2022-08-08T17:44:49.089Z,99973.91
2022-08-08T17:47:23.858Z,99969.22
2022-08-08T17:50:00.996Z,99966.69
2022-08-08T17:52:33.408Z,99965.94
2022-08-08T17:55:05.734Z,99959.31
2022-08-08T17:57:51.491Z,99956.63
2022-08-08T18:00:26.211Z,99950.81
2022-08-08T18:03:08.740Z,99961.84
2022-08-08T18:05:48.888Z,99955.47
2022-08-08T18:08:38.396Z,99964.72
2022-08-08T18:11:15.437Z,99966.50
2022-08-08T18:13:47.173Z,99971.31
2022-08-08T18:16:20.335Z,99967.41
2022-08-08T18:18:56.284Z,99967.84
2022-08-08T18:21:59.921Z,99975.50
2022-08-08T18:24:19.756Z,99980.28
2022-08-08T18:26:54.828Z,99975.53
2022-08-08T18:29:29.450Z,99979.47
2022-08-08T18:32:03.670Z,99985.72
2022-08-08T18:34:33.536Z,100000.19
2022-08-08T18:37:06.470Z,99989.31
2022-08-08T18:39:36.977Z,99988.44
2022-08-08T18:42:11.598Z,99989.91
2022-08-08T18:44:42.409Z,99993.19
2022-08-08T18:47:25.738Z,99991.50
2022-08-08T18:49:58.947Z,99994.47
2022-08-08T18:52:33.953Z,99990.31
2022-08-08T18:55:10.324Z,99994.41
2022-08-08T18:57:43.421Z,99988.34
2022-08-08T19:00:20.475Z,99990.31
2022-08-08T19:02:55.774Z,99986.41
2022-08-08T19:05:31.861Z,100003.66
2022-08-08T19:08:24.841Z,100000.84
2022-08-08T19:10:58.613Z,100009.50
2022-08-08T19:13:53.048Z,100004.09
2022-08-08T19:16:20.380Z,100012.44
2022-08-08T19:18:56.036Z,100008.53
2022-08-08T19:21:30.839Z,100013.28
2022-08-08T19:24:05.568Z,100015.56
2022-08-08T19:26:38.041Z,100015.41
2022-08-08T19:29:06.249Z,100013.69
2022-08-08T19:31:35.386Z,100009.66
2022-08-08T19:34:35.838Z,100012.06
2022-08-08T19:36:58.597Z,100010.88
2022-08-08T19:39:30.914Z,100020.97
2022-08-08T19:42:05.138Z,100024.34
2022-08-08T19:44:42.821Z,100014.22
2022-08-08T19:47:14.830Z,100015.28
2022-08-08T19:49:59.863Z,100020.97
2022-08-08T19:52:37.187Z,100014.44
2022-08-08T19:55:11.114Z,100023.69
2022-08-08T19:57:42.557Z,100018.69
2022-08-08T20:00:29.320Z,100013.03
2022-08-08T20:03:00.374Z,100011.78
2022-08-08T20:06:15.561Z,100012.16
2022-08-08T20:08:31.072Z,100020.00
2022-08-08T20:11:03.154Z,100007.41
2022-08-08T20:14:34.754Z,100006.69
2022-08-08T20:16:19.139Z,100001.22
2022-08-08T20:18:53.275Z,100000.53
2022-08-08T20:21:25.815Z,100002.59
2022-08-08T20:23:58.155Z,99998.41
2022-08-08T20:26:33.310Z,100002.09
2022-08-08T20:29:03.266Z,100000.75
2022-08-08T20:32:08.256Z,99997.06
2022-08-08T20:34:30.629Z,100002.06
2022-08-08T20:37:02.529Z,99996.69
2022-08-08T20:39:39.375Z,99982.72
2022-08-08T20:42:20.601Z,99992.94
2022-08-08T20:44:56.963Z,99993.53
2022-08-08T20:47:25.546Z,99996.41
2022-08-08T20:49:54.313Z,99990.84
2022-08-08T20:52:27.648Z,99991.94
2022-08-08T20:54:56.614Z,99984.25
2022-08-08T20:57:26.865Z,99980.56
2022-08-08T20:59:56.293Z,99978.06
2022-08-08T21:02:25.677Z,99979.16
2022-08-08T21:05:00.824Z,99988.97
2022-08-08T21:08:07.711Z,99984.69
2022-08-08T21:10:20.701Z,99981.28
2022-08-08T21:12:52.787Z,99985.09
2022-08-08T21:16:04.126Z,99977.94
2022-08-08T21:18:09.755Z,99982.00
2022-08-08T21:20:41.987Z,99991.47
2022-08-08T21:23:15.870Z,99995.78
2022-08-08T21:25:49.195Z,99996.28
2022-08-08T21:28:19.472Z,99997.06
2022-08-08T21:31:06.104Z,100001.50
2022-08-08T21:33:52.776Z,100003.19
2022-08-08T21:36:28.502Z,100005.47
2022-08-08T21:38:57.554Z,100020.13
2022-08-08T21:41:38.269Z,100019.97
2022-08-08T21:44:11.616Z,100020.37
2022-08-08T21:48:05.107Z,100015.50
2022-08-08T21:49:31.597Z,100017.56
2022-08-08T21:54:34.185Z,100025.19
2022-08-08T21:54:54.956Z,100025.84
2022-08-08T21:57:29.229Z,100023.87
2022-08-08T22:00:12.423Z,100026.69
2022-08-08T22:02:44.278Z,100029.47
2022-08-08T22:05:14.919Z,100028.62
2022-08-08T22:07:44.254Z,100028.62
2022-08-08T22:10:18.215Z,100024.31
2022-08-08T22:13:17.604Z,100029.84
2022-08-08T22:15:59.238Z,100031.09
2022-08-08T22:18:33.357Z,100033.13
2022-08-08T22:21:13.740Z,100028.75
2022-08-08T22:23:51.578Z,100029.59
2022-08-08T22:26:30.878Z,100028.09
2022-08-08T22:29:12.883Z,100020.75
2022-08-08T22:31:58.635Z,100024.03
2022-08-08T22:34:39.496Z,100019.13
2022-08-08T22:37:14.944Z,100023.09
2022-08-08T22:40:01.046Z,100014.59
2022-08-08T22:42:31.755Z,100006.81
2022-08-08T22:45:05.344Z,100009.38
2022-08-08T22:47:48.903Z,100010.44
2022-08-08T22:50:27.252Z,100002.59
2022-08-08T22:54:33.909Z,99996.47
2022-08-08T22:55:59.266Z,100000.31
2022-08-08T22:58:34.698Z,100003.25
2022-08-08T23:01:26.761Z,100013.59
2022-08-08T23:03:56.425Z,100019.09
2022-08-08T23:06:25.327Z,100010.66
2022-08-08T23:08:55.427Z,100009.16
2022-08-08T23:11:31.438Z,100009.19
2022-08-08T23:14:13.092Z,100008.47
2022-08-08T23:16:44.018Z,100006.97
2022-08-08T23:19:15.350Z,100008.44
2022-08-08T23:21:45.674Z,100003.63
2022-08-08T23:24:22.740Z,100009.13
2022-08-08T23:26:55.389Z,100002.28
2022-08-08T23:29:25.564Z,100010.28
2022-08-08T23:31:56.440Z,100009.41
2022-08-08T23:34:24.432Z,100007.94
2022-08-08T23:36:58.183Z,100014.88
2022-08-08T23:39:41.458Z,100016.50
2022-08-08T23:42:16.576Z,100028.03
2022-08-08T23:44:45.200Z,100028.53
2022-08-08T23:49:06.164Z,100029.19
2022-08-08T23:50:00.992Z,100035.47
2022-08-08T23:52:31.325Z,100032.03
2022-08-08T23:55:07.335Z,100038.62
2022-08-08T23:57:52.102Z,100041.59
